sensor_id;sensor_type;location;lat;lon;timestamp;P1;durP1;ratioP1;P2;durP2;ratioP2
11319;SDS011;5715;48.234;14.320;2023-09-19T00:03:20;3.35;;;3.25;;
11319;SDS011;5715;48.234;14.320;2023-09-19T00:06:10;3.20;;;3.10;;
11319;SDS011;5715;48.234;14.320;2023-09-19T00:09:17;3.42;;;3.22;;
11319;SDS011;5715;48.234;14.320;2023-09-19T00:12:25;3.35;;;3.20;;
11319;SDS011;5715;48.234;14.320;2023-09-19T00:15:23;3.47;;;3.28;;
11319;SDS011;5715;48.234;14.320;2023-09-19T00:18:33;12.88;;;3.35;;
11319;SDS011;5715;48.234;14.320;2023-09-19T00:21:32;3.05;;;2.95;;
11319;SDS011;5715;48.234;14.320;2023-09-19T00:24:25;3.42;;;3.33;;
11319;SDS011;5715;48.234;14.320;2023-09-19T00:27:46;3.50;;;3.30;;
11319;SDS011;5715;48.234;14.320;2023-09-19T00:30:43;3.58;;;3.45;;
11319;SDS011;5715;48.234;14.320;2023-09-19T00:33:45;3.72;;;3.53;;
11319;SDS011;5715;48.234;14.320;2023-09-19T00:36:39;3.33;;;3.22;;
11319;SDS011;5715;48.234;14.320;2023-09-19T00:39:26;3.65;;;3.45;;
11319;SDS011;5715;48.234;14.320;2023-09-19T00:42:22;3.88;;;3.58;;
11319;SDS011;5715;48.234;14.320;2023-09-19T00:45:16;3.10;;;3.00;;
11319;SDS011;5715;48.234;14.320;2023-09-19T00:48:15;3.53;;;3.38;;
11319;SDS011;5715;48.234;14.320;2023-09-19T00:51:14;3.80;;;3.60;;
11319;SDS011;5715;48.234;14.320;2023-09-19T00:54:15;3.33;;;3.20;;
11319;SDS011;5715;48.234;14.320;2023-09-19T00:57:07;3.40;;;3.30;;
11319;SDS011;5715;48.234;14.320;2023-09-19T01:00:13;3.25;;;3.05;;
11319;SDS011;5715;48.234;14.320;2023-09-19T01:03:39;3.63;;;3.42;;
11319;SDS011;5715;48.234;14.320;2023-09-19T01:06:34;4.82;;;3.45;;
11319;SDS011;5715;48.234;14.320;2023-09-19T01:09:33;2.95;;;2.85;;
11319;SDS011;5715;48.234;14.320;2023-09-19T01:16:19;3.65;;;3.45;;
11319;SDS011;5715;48.234;14.320;2023-09-19T01:31:22;2.78;;;2.67;;
11319;SDS011;5715;48.234;14.320;2023-09-19T01:34:18;2.40;;;2.30;;
11319;SDS011;5715;48.234;14.320;2023-09-19T01:37:06;3.35;;;3.15;;
11319;SDS011;5715;48.234;14.320;2023-09-19T01:40:28;3.10;;;2.90;;
11319;SDS011;5715;48.234;14.320;2023-09-19T01:43:17;2.47;;;2.38;;
11319;SDS011;5715;48.234;14.320;2023-09-19T01:46:19;3.17;;;2.92;;
11319;SDS011;5715;48.234;14.320;2023-09-19T01:52:14;2.65;;;2.55;;
11319;SDS011;5715;48.234;14.320;2023-09-19T01:55:08;3.35;;;2.88;;
11319;SDS011;5715;48.234;14.320;2023-09-19T01:58:01;2.78;;;2.67;;
11319;SDS011;5715;48.234;14.320;2023-09-19T02:00:55;3.38;;;3.17;;
11319;SDS011;5715;48.234;14.320;2023-09-19T02:03:47;7.63;;;3.13;;
11319;SDS011;5715;48.234;14.320;2023-09-19T02:06:40;3.05;;;2.92;;
11319;SDS011;5715;48.234;14.320;2023-09-19T02:09:29;5.68;;;2.70;;
11319;SDS011;5715;48.234;14.320;2023-09-19T02:12:16;2.72;;;2.53;;
11319;SDS011;5715;48.234;14.320;2023-09-19T02:15:04;2.80;;;2.60;;
11319;SDS011;5715;48.234;14.320;2023-09-19T02:17:54;3.13;;;2.78;;
11319;SDS011;5715;48.234;14.320;2023-09-19T02:20:43;3.30;;;3.05;;
11319;SDS011;5715;48.234;14.320;2023-09-19T02:23:33;2.83;;;2.63;;
11319;SDS011;5715;48.234;14.320;2023-09-19T02:26:21;2.78;;;2.60;;
11319;SDS011;5715;48.234;14.320;2023-09-19T02:29:11;2.63;;;2.53;;
11319;SDS011;5715;48.234;14.320;2023-09-19T02:32:00;2.33;;;2.22;;
11319;SDS011;5715;48.234;14.320;2023-09-19T02:34:49;3.60;;;2.78;;
11319;SDS011;5715;48.234;14.320;2023-09-19T02:37:38;2.30;;;2.20;;
11319;SDS011;5715;48.234;14.320;2023-09-19T02:40:26;2.70;;;2.58;;
11319;SDS011;5715;48.234;14.320;2023-09-19T02:43:16;2.60;;;2.40;;
11319;SDS011;5715;48.234;14.320;2023-09-19T02:46:04;3.35;;;2.53;;
11319;SDS011;5715;48.234;14.320;2023-09-19T02:48:52;2.63;;;2.53;;
11319;SDS011;5715;48.234;14.320;2023-09-19T02:51:41;2.50;;;2.40;;
11319;SDS011;5715;48.234;14.320;2023-09-19T02:54:29;7.10;;;2.92;;
11319;SDS011;5715;48.234;14.320;2023-09-19T02:57:16;4.70;;;2.70;;
11319;SDS011;5715;48.234;14.320;2023-09-19T03:00:07;2.55;;;2.45;;
11319;SDS011;5715;48.234;14.320;2023-09-19T03:02:56;2.42;;;2.33;;
11319;SDS011;5715;48.234;14.320;2023-09-19T03:05:44;2.47;;;2.38;;
11319;SDS011;5715;48.234;14.320;2023-09-19T03:08:38;2.85;;;2.60;;
11319;SDS011;5715;48.234;14.320;2023-09-19T03:11:29;2.47;;;2.28;;
11319;SDS011;5715;48.234;14.320;2023-09-19T03:14:40;2.80;;;2.60;;
11319;SDS011;5715;48.234;14.320;2023-09-19T03:17:32;5.13;;;2.50;;
11319;SDS011;5715;48.234;14.320;2023-09-19T03:20:51;2.50;;;2.30;;
11319;SDS011;5715;48.234;14.320;2023-09-19T03:23:44;2.33;;;2.22;;
11319;SDS011;5715;48.234;14.320;2023-09-19T03:26:38;2.25;;;2.15;;
11319;SDS011;5715;48.234;14.320;2023-09-19T03:29:37;3.15;;;2.53;;
11319;SDS011;5715;48.234;14.320;2023-09-19T03:32:29;2.55;;;2.45;;
11319;SDS011;5715;48.234;14.320;2023-09-19T03:35:57;3.05;;;2.10;;
11319;SDS011;5715;48.234;14.320;2023-09-19T03:39:02;2.13;;;2.03;;
11319;SDS011;5715;48.234;14.320;2023-09-19T03:42:05;2.00;;;1.90;;
11319;SDS011;5715;48.234;14.320;2023-09-19T03:45:06;2.10;;;2.00;;
11319;SDS011;5715;48.234;14.320;2023-09-19T03:48:22;1.90;;;1.80;;
11319;SDS011;5715;48.234;14.320;2023-09-19T03:51:16;4.10;;;3.33;;
11319;SDS011;5715;48.234;14.320;2023-09-19T03:54:15;2.05;;;1.95;;
11319;SDS011;5715;48.234;14.320;2023-09-19T03:57:15;2.30;;;2.20;;
11319;SDS011;5715;48.234;14.320;2023-09-19T04:00:07;2.30;;;2.20;;
11319;SDS011;5715;48.234;14.320;2023-09-19T04:03:05;2.03;;;1.92;;
11319;SDS011;5715;48.234;14.320;2023-09-19T04:06:15;2.25;;;2.15;;
11319;SDS011;5715;48.234;14.320;2023-09-19T04:09:04;2.17;;;2.08;;
11319;SDS011;5715;48.234;14.320;2023-09-19T04:12:08;2.20;;;2.10;;
11319;SDS011;5715;48.234;14.320;2023-09-19T04:15:18;5.40;;;2.67;;
11319;SDS011;5715;48.234;14.320;2023-09-19T04:18:16;2.00;;;1.90;;
11319;SDS011;5715;48.234;14.320;2023-09-19T04:21:04;5.78;;;2.50;;
11319;SDS011;5715;48.234;14.320;2023-09-19T04:23:53;7.50;;;2.05;;
11319;SDS011;5715;48.234;14.320;2023-09-19T04:26:47;1.98;;;1.88;;
11319;SDS011;5715;48.234;14.320;2023-09-19T04:29:35;3.95;;;2.90;;
11319;SDS011;5715;48.234;14.320;2023-09-19T04:32:51;2.00;;;1.90;;
11319;SDS011;5715;48.234;14.320;2023-09-19T04:36:15;2.53;;;2.25;;
11319;SDS011;5715;48.234;14.320;2023-09-19T04:39:25;1.92;;;1.83;;
11319;SDS011;5715;48.234;14.320;2023-09-19T04:42:16;2.28;;;1.95;;
11319;SDS011;5715;48.234;14.320;2023-09-19T04:45:14;2.00;;;1.90;;
11319;SDS011;5715;48.234;14.320;2023-09-19T04:48:20;2.00;;;1.90;;
11319;SDS011;5715;48.234;14.320;2023-09-19T04:51:20;2.30;;;2.20;;
11319;SDS011;5715;48.234;14.320;2023-09-19T04:54:08;3.47;;;2.30;;
11319;SDS011;5715;48.234;14.320;2023-09-19T04:57:00;1.98;;;1.88;;
11319;SDS011;5715;48.234;14.320;2023-09-19T04:59:51;2.28;;;2.10;;
11319;SDS011;5715;48.234;14.320;2023-09-19T05:02:39;2.05;;;1.95;;
11319;SDS011;5715;48.234;14.320;2023-09-19T05:05:34;2.15;;;2.05;;
11319;SDS011;5715;48.234;14.320;2023-09-19T05:08:22;1.83;;;1.73;;
11319;SDS011;5715;48.234;14.320;2023-09-19T05:11:20;1.98;;;1.88;;
11319;SDS011;5715;48.234;14.320;2023-09-19T05:14:15;2.45;;;2.25;;
11319;SDS011;5715;48.234;14.320;2023-09-19T05:17:03;2.13;;;2.03;;
11319;SDS011;5715;48.234;14.320;2023-09-19T05:19:51;1.95;;;1.85;;
11319;SDS011;5715;48.234;14.320;2023-09-19T05:23:12;2.20;;;2.10;;
11319;SDS011;5715;48.234;14.320;2023-09-19T05:25:59;2.47;;;2.28;;
11319;SDS011;5715;48.234;14.320;2023-09-19T05:28:50;2.55;;;2.40;;
11319;SDS011;5715;48.234;14.320;2023-09-19T05:31:43;4.13;;;2.53;;
11319;SDS011;5715;48.234;14.320;2023-09-19T05:34:38;3.00;;;2.78;;
11319;SDS011;5715;48.234;14.320;2023-09-19T05:37:40;2.63;;;2.45;;
11319;SDS011;5715;48.234;14.320;2023-09-19T05:40:28;2.33;;;2.15;;
11319;SDS011;5715;48.234;14.320;2023-09-19T05:43:37;2.17;;;2.08;;
11319;SDS011;5715;48.234;14.320;2023-09-19T05:46:35;3.53;;;3.25;;
11319;SDS011;5715;48.234;14.320;2023-09-19T05:49:26;2.63;;;2.45;;
11319;SDS011;5715;48.234;14.320;2023-09-19T05:52:28;2.22;;;2.08;;
11319;SDS011;5715;48.234;14.320;2023-09-19T05:55:29;2.60;;;2.40;;
11319;SDS011;5715;48.234;14.320;2023-09-19T05:58:44;4.70;;;2.25;;
11319;SDS011;5715;48.234;14.320;2023-09-19T06:01:34;2.78;;;2.58;;
11319;SDS011;5715;48.234;14.320;2023-09-19T06:04:29;2.50;;;2.40;;
11319;SDS011;5715;48.234;14.320;2023-09-19T06:07:37;2.15;;;2.00;;
11319;SDS011;5715;48.234;14.320;2023-09-19T06:10:47;2.25;;;2.13;;
11319;SDS011;5715;48.234;14.320;2023-09-19T06:13:45;2.13;;;2.03;;
11319;SDS011;5715;48.234;14.320;2023-09-19T06:16:37;2.17;;;2.08;;
11319;SDS011;5715;48.234;14.320;2023-09-19T06:19:26;2.47;;;2.38;;
11319;SDS011;5715;48.234;14.320;2023-09-19T06:22:21;2.20;;;2.10;;
11319;SDS011;5715;48.234;14.320;2023-09-19T06:25:11;2.95;;;2.75;;
11319;SDS011;5715;48.234;14.320;2023-09-19T06:28:17;2.45;;;2.35;;
11319;SDS011;5715;48.234;14.320;2023-09-19T06:31:11;2.63;;;2.50;;
11319;SDS011;5715;48.234;14.320;2023-09-19T06:34:05;2.47;;;2.38;;
11319;SDS011;5715;48.234;14.320;2023-09-19T06:36:56;2.55;;;2.40;;
11319;SDS011;5715;48.234;14.320;2023-09-19T06:39:51;3.05;;;2.85;;
11319;SDS011;5715;48.234;14.320;2023-09-19T06:42:51;2.97;;;2.78;;
11319;SDS011;5715;48.234;14.320;2023-09-19T06:46:00;2.72;;;2.58;;
11319;SDS011;5715;48.234;14.320;2023-09-19T06:48:59;2.85;;;2.67;;
11319;SDS011;5715;48.234;14.320;2023-09-19T06:51:54;7.82;;;3.17;;
11319;SDS011;5715;48.234;14.320;2023-09-19T06:54:45;3.60;;;3.30;;
11319;SDS011;5715;48.234;14.320;2023-09-19T06:57:34;8.32;;;3.00;;
11319;SDS011;5715;48.234;14.320;2023-09-19T07:00:24;2.67;;;2.55;;
11319;SDS011;5715;48.234;14.320;2023-09-19T07:03:20;18.15;;;3.30;;
11319;SDS011;5715;48.234;14.320;2023-09-19T07:06:12;7.07;;;2.70;;
11319;SDS011;5715;48.234;14.320;2023-09-19T07:09:00;4.03;;;3.63;;
11319;SDS011;5715;48.234;14.320;2023-09-19T07:12:00;2.55;;;2.45;;
11319;SDS011;5715;48.234;14.320;2023-09-19T07:14:58;3.30;;;3.10;;
11319;SDS011;5715;48.234;14.320;2023-09-19T07:18:01;2.95;;;2.72;;
11319;SDS011;5715;48.234;14.320;2023-09-19T07:21:07;2.33;;;2.22;;
11319;SDS011;5715;48.234;14.320;2023-09-19T07:24:30;3.10;;;2.90;;
11319;SDS011;5715;48.234;14.320;2023-09-19T07:27:41;2.70;;;2.60;;
11319;SDS011;5715;48.234;14.320;2023-09-19T07:30:29;3.05;;;2.83;;
11319;SDS011;5715;48.234;14.320;2023-09-19T07:33:30;3.30;;;3.13;;
11319;SDS011;5715;48.234;14.320;2023-09-19T07:36:27;2.95;;;2.78;;
11319;SDS011;5715;48.234;14.320;2023-09-19T07:39:19;14.10;;;2.88;;
11319;SDS011;5715;48.234;14.320;2023-09-19T07:42:18;3.03;;;2.83;;
11319;SDS011;5715;48.234;14.320;2023-09-19T07:45:27;3.65;;;3.45;;
11319;SDS011;5715;48.234;14.320;2023-09-19T07:48:19;3.55;;;3.35;;
11319;SDS011;5715;48.234;14.320;2023-09-19T07:51:15;4.65;;;2.90;;
11319;SDS011;5715;48.234;14.320;2023-09-19T07:54:09;2.75;;;2.60;;
11319;SDS011;5715;48.234;14.320;2023-09-19T07:57:12;2.42;;;2.22;;
11319;SDS011;5715;48.234;14.320;2023-09-19T08:00:30;1.90;;;1.80;;
11319;SDS011;5715;48.234;14.320;2023-09-19T08:03:33;2.03;;;1.80;;
11319;SDS011;5715;48.234;14.320;2023-09-19T08:06:47;1.90;;;1.77;;
11319;SDS011;5715;48.234;14.320;2023-09-19T08:09:47;2.20;;;2.10;;
11319;SDS011;5715;48.234;14.320;2023-09-19T08:12:35;2.00;;;1.90;;
11319;SDS011;5715;48.234;14.320;2023-09-19T08:15:23;2.35;;;2.15;;
11319;SDS011;5715;48.234;14.320;2023-09-19T08:18:11;3.47;;;2.00;;
11319;SDS011;5715;48.234;14.320;2023-09-19T08:20:58;2.92;;;2.20;;
11319;SDS011;5715;48.234;14.320;2023-09-19T08:23:47;2.30;;;1.95;;
11319;SDS011;5715;48.234;14.320;2023-09-19T08:26:34;3.08;;;2.78;;
11319;SDS011;5715;48.234;14.320;2023-09-19T08:29:25;2.03;;;1.92;;
11319;SDS011;5715;48.234;14.320;2023-09-19T08:32:14;2.28;;;2.17;;
11319;SDS011;5715;48.234;14.320;2023-09-19T08:35:02;2.90;;;1.65;;
11319;SDS011;5715;48.234;14.320;2023-09-19T08:37:54;1.80;;;1.70;;
11319;SDS011;5715;48.234;14.320;2023-09-19T08:40:42;1.88;;;1.77;;
11319;SDS011;5715;48.234;14.320;2023-09-19T08:43:30;7.32;;;1.92;;
11319;SDS011;5715;48.234;14.320;2023-09-19T08:46:21;1.83;;;1.73;;
11319;SDS011;5715;48.234;14.320;2023-09-19T08:49:33;2.03;;;1.90;;
11319;SDS011;5715;48.234;14.320;2023-09-19T08:52:50;4.75;;;2.40;;
11319;SDS011;5715;48.234;14.320;2023-09-19T08:55:41;4.78;;;2.58;;
11319;SDS011;5715;48.234;14.320;2023-09-19T08:58:39;2.20;;;2.10;;
11319;SDS011;5715;48.234;14.320;2023-09-19T09:01:54;2.10;;;2.00;;
11319;SDS011;5715;48.234;14.320;2023-09-19T09:04:43;2.63;;;2.42;;
11319;SDS011;5715;48.234;14.320;2023-09-19T09:07:35;2.33;;;2.13;;
11319;SDS011;5715;48.234;14.320;2023-09-19T09:10:27;2.17;;;2.08;;
11319;SDS011;5715;48.234;14.320;2023-09-19T09:13:15;2.42;;;2.33;;
11319;SDS011;5715;48.234;14.320;2023-09-19T09:16:04;2.30;;;2.20;;
11319;SDS011;5715;48.234;14.320;2023-09-19T09:18:56;2.83;;;2.65;;
11319;SDS011;5715;48.234;14.320;2023-09-19T09:21:44;2.60;;;2.47;;
11319;SDS011;5715;48.234;14.320;2023-09-19T09:24:32;2.28;;;2.17;;
11319;SDS011;5715;48.234;14.320;2023-09-19T09:27:25;4.65;;;2.15;;
11319;SDS011;5715;48.234;14.320;2023-09-19T09:30:32;1.80;;;1.70;;
11319;SDS011;5715;48.234;14.320;2023-09-19T09:33:22;1.70;;;1.60;;
11319;SDS011;5715;48.234;14.320;2023-09-19T09:36:10;1.63;;;1.52;;
11319;SDS011;5715;48.234;14.320;2023-09-19T09:39:00;2.08;;;1.98;;
11319;SDS011;5715;48.234;14.320;2023-09-19T09:42:03;2.20;;;1.92;;
11319;SDS011;5715;48.234;14.320;2023-09-19T09:45:11;4.80;;;2.38;;
11319;SDS011;5715;48.234;14.320;2023-09-19T09:48:15;2.28;;;2.08;;
11319;SDS011;5715;48.234;14.320;2023-09-19T09:51:39;1.77;;;1.67;;
11319;SDS011;5715;48.234;14.320;2023-09-19T09:55:00;3.97;;;2.08;;
11319;SDS011;5715;48.234;14.320;2023-09-19T10:01:20;2.00;;;1.90;;
11319;SDS011;5715;48.234;14.320;2023-09-19T10:04:15;2.15;;;2.05;;
11319;SDS011;5715;48.234;14.320;2023-09-19T10:07:27;2.35;;;2.25;;
11319;SDS011;5715;48.234;14.320;2023-09-19T10:10:40;3.45;;;2.95;;
11319;SDS011;5715;48.234;14.320;2023-09-19T10:13:28;3.50;;;3.30;;
11319;SDS011;5715;48.234;14.320;2023-09-19T10:16:22;2.97;;;2.80;;
11319;SDS011;5715;48.234;14.320;2023-09-19T10:19:11;3.10;;;3.00;;
11319;SDS011;5715;48.234;14.320;2023-09-19T10:22:13;7.32;;;3.40;;
11319;SDS011;5715;48.234;14.320;2023-09-19T10:25:03;7.05;;;3.67;;
11319;SDS011;5715;48.234;14.320;2023-09-19T10:27:55;4.15;;;3.95;;
11319;SDS011;5715;48.234;14.320;2023-09-19T10:30:55;3.63;;;3.42;;
11319;SDS011;5715;48.234;14.320;2023-09-19T10:33:44;5.32;;;3.47;;
11319;SDS011;5715;48.234;14.320;2023-09-19T10:36:35;3.80;;;3.60;;
11319;SDS011;5715;48.234;14.320;2023-09-19T10:39:25;3.33;;;3.03;;
11319;SDS011;5715;48.234;14.320;2023-09-19T10:42:14;2.33;;;1.80;;
11319;SDS011;5715;48.234;14.320;2023-09-19T10:45:07;1.63;;;1.40;;
11319;SDS011;5715;48.234;14.320;2023-09-19T10:48:03;1.10;;;1.10;;
11319;SDS011;5715;48.234;14.320;2023-09-19T10:54:21;1.40;;;1.30;;
11319;SDS011;5715;48.234;14.320;2023-09-19T10:57:13;3.97;;;1.50;;
11319;SDS011;5715;48.234;14.320;2023-09-19T11:00:14;2.30;;;2.20;;
11319;SDS011;5715;48.234;14.320;2023-09-19T11:06:21;1.50;;;1.40;;
11319;SDS011;5715;48.234;14.320;2023-09-19T11:09:09;1.83;;;1.73;;
11319;SDS011;5715;48.234;14.320;2023-09-19T11:11:57;1.63;;;1.52;;
11319;SDS011;5715;48.234;14.320;2023-09-19T11:14:46;3.15;;;1.95;;
11319;SDS011;5715;48.234;14.320;2023-09-19T11:17:35;2.08;;;1.85;;
11319;SDS011;5715;48.234;14.320;2023-09-19T11:20:38;1.35;;;1.23;;
11319;SDS011;5715;48.234;14.320;2023-09-19T11:23:28;3.08;;;1.20;;
11319;SDS011;5715;48.234;14.320;2023-09-19T11:29:38;1.33;;;1.23;;
11319;SDS011;5715;48.234;14.320;2023-09-19T11:33:15;1.30;;;1.20;;
11319;SDS011;5715;48.234;14.320;2023-09-19T11:36:26;1.58;;;1.48;;
11319;SDS011;5715;48.234;14.320;2023-09-19T11:39:26;1.40;;;1.30;;
11319;SDS011;5715;48.234;14.320;2023-09-19T11:48:37;1.40;;;1.30;;
11319;SDS011;5715;48.234;14.320;2023-09-19T11:51:28;1.90;;;1.80;;
11319;SDS011;5715;48.234;14.320;2023-09-19T11:54:31;3.38;;;3.13;;
11319;SDS011;5715;48.234;14.320;2023-09-19T11:57:20;4.20;;;4.00;;
11319;SDS011;5715;48.234;14.320;2023-09-19T12:00:16;6.63;;;6.22;;
11319;SDS011;5715;48.234;14.320;2023-09-19T12:03:09;4.97;;;4.78;;
11319;SDS011;5715;48.234;14.320;2023-09-19T12:06:01;5.68;;;5.28;;
11319;SDS011;5715;48.234;14.320;2023-09-19T12:09:01;4.95;;;4.75;;
11319;SDS011;5715;48.234;14.320;2023-09-19T12:11:54;5.95;;;5.68;;
11319;SDS011;5715;48.234;14.320;2023-09-19T12:14:41;6.13;;;5.82;;
11319;SDS011;5715;48.234;14.320;2023-09-19T12:17:38;6.10;;;5.68;;
11319;SDS011;5715;48.234;14.320;2023-09-19T12:20:43;5.57;;;5.15;;
11319;SDS011;5715;48.234;14.320;2023-09-19T12:23:36;4.15;;;3.95;;
11319;SDS011;5715;48.234;14.320;2023-09-19T12:26:27;4.00;;;3.80;;
11319;SDS011;5715;48.234;14.320;2023-09-19T12:29:16;4.35;;;4.15;;
11319;SDS011;5715;48.234;14.320;2023-09-19T12:32:05;4.82;;;4.55;;
11319;SDS011;5715;48.234;14.320;2023-09-19T12:34:53;3.28;;;3.17;;
11319;SDS011;5715;48.234;14.320;2023-09-19T12:37:45;3.70;;;3.50;;
11319;SDS011;5715;48.234;14.320;2023-09-19T12:40:35;4.45;;;4.07;;
11319;SDS011;5715;48.234;14.320;2023-09-19T12:43:25;26.15;;;5.70;;
11319;SDS011;5715;48.234;14.320;2023-09-19T12:46:22;4.55;;;4.35;;
11319;SDS011;5715;48.234;14.320;2023-09-19T12:49:16;4.75;;;4.35;;
11319;SDS011;5715;48.234;14.320;2023-09-19T12:52:08;3.22;;;3.03;;
11319;SDS011;5715;48.234;14.320;2023-09-19T12:54:56;2.60;;;2.50;;
11319;SDS011;5715;48.234;14.320;2023-09-19T12:57:54;2.22;;;2.13;;
11319;SDS011;5715;48.234;14.320;2023-09-19T13:00:47;2.03;;;1.92;;
11319;SDS011;5715;48.234;14.320;2023-09-19T13:03:38;1.98;;;1.75;;
11319;SDS011;5715;48.234;14.320;2023-09-19T13:06:36;1.35;;;1.20;;
11319;SDS011;5715;48.234;14.320;2023-09-19T13:09:30;1.40;;;1.30;;
11319;SDS011;5715;48.234;14.320;2023-09-19T13:12:34;7.82;;;1.20;;
11319;SDS011;5715;48.234;14.320;2023-09-19T13:15:27;1.02;;;1.02;;
11319;SDS011;5715;48.234;14.320;2023-09-19T13:18:16;0.90;;;0.90;;
11319;SDS011;5715;48.234;14.320;2023-09-19T13:21:06;0.77;;;0.77;;
11319;SDS011;5715;48.234;14.320;2023-09-19T13:24:17;1.08;;;1.00;;
11319;SDS011;5715;48.234;14.320;2023-09-19T13:27:08;1.02;;;1.02;;
11319;SDS011;5715;48.234;14.320;2023-09-19T13:29:55;2.30;;;1.20;;
11319;SDS011;5715;48.234;14.320;2023-09-19T13:32:43;1.83;;;1.35;;
11319;SDS011;5715;48.234;14.320;2023-09-19T13:35:34;1.30;;;1.20;;
11319;SDS011;5715;48.234;14.320;2023-09-19T13:38:22;2.08;;;1.30;;
11319;SDS011;5715;48.234;14.320;2023-09-19T13:41:10;1.55;;;1.45;;
11319;SDS011;5715;48.234;14.320;2023-09-19T13:43:58;1.85;;;1.75;;
11319;SDS011;5715;48.234;14.320;2023-09-19T13:46:45;6.93;;;1.67;;
11319;SDS011;5715;48.234;14.320;2023-09-19T13:49:34;3.22;;;1.83;;
11319;SDS011;5715;48.234;14.320;2023-09-19T13:52:22;6.90;;;6.60;;
11319;SDS011;5715;48.234;14.320;2023-09-19T13:55:11;2.47;;;2.38;;
11319;SDS011;5715;48.234;14.320;2023-09-19T13:58:01;3.38;;;3.28;;
11319;SDS011;5715;48.234;14.320;2023-09-19T14:00:52;5.60;;;5.28;;
11319;SDS011;5715;48.234;14.320;2023-09-19T14:03:45;5.93;;;5.68;;
11319;SDS011;5715;48.234;14.320;2023-09-19T14:06:33;6.57;;;6.18;;
11319;SDS011;5715;48.234;14.320;2023-09-19T14:09:21;10.60;;;7.47;;
11319;SDS011;5715;48.234;14.320;2023-09-19T14:12:10;8.93;;;8.52;;
11319;SDS011;5715;48.234;14.320;2023-09-19T14:14:57;8.40;;;8.00;;
11319;SDS011;5715;48.234;14.320;2023-09-19T14:17:45;7.57;;;7.28;;
11319;SDS011;5715;48.234;14.320;2023-09-19T14:20:33;8.18;;;7.72;;
11319;SDS011;5715;48.234;14.320;2023-09-19T14:23:28;7.38;;;7.07;;
11319;SDS011;5715;48.234;14.320;2023-09-19T14:26:20;6.78;;;6.47;;
11319;SDS011;5715;48.234;14.320;2023-09-19T14:29:09;6.00;;;5.80;;
11319;SDS011;5715;48.234;14.320;2023-09-19T14:31:58;5.90;;;5.60;;
11319;SDS011;5715;48.234;14.320;2023-09-19T14:34:46;4.75;;;4.55;;
11319;SDS011;5715;48.234;14.320;2023-09-19T14:37:34;4.32;;;4.13;;
11319;SDS011;5715;48.234;14.320;2023-09-19T14:40:21;4.18;;;4.00;;
11319;SDS011;5715;48.234;14.320;2023-09-19T14:43:09;4.25;;;4.05;;
11319;SDS011;5715;48.234;14.320;2023-09-19T14:45:57;3.70;;;3.50;;
11319;SDS011;5715;48.234;14.320;2023-09-19T14:48:45;3.83;;;3.63;;
11319;SDS011;5715;48.234;14.320;2023-09-19T14:51:33;3.47;;;3.38;;
11319;SDS011;5715;48.234;14.320;2023-09-19T14:54:22;3.83;;;3.63;;
11319;SDS011;5715;48.234;14.320;2023-09-19T14:57:10;3.72;;;3.53;;
11319;SDS011;5715;48.234;14.320;2023-09-19T15:00:00;3.33;;;3.22;;
11319;SDS011;5715;48.234;14.320;2023-09-19T15:02:48;4.65;;;3.10;;
11319;SDS011;5715;48.234;14.320;2023-09-19T15:05:37;2.78;;;2.67;;
11319;SDS011;5715;48.234;14.320;2023-09-19T15:08:25;2.72;;;2.63;;
11319;SDS011;5715;48.234;14.320;2023-09-19T15:11:16;2.78;;;2.58;;
11319;SDS011;5715;48.234;14.320;2023-09-19T15:14:04;1.80;;;1.70;;
11319;SDS011;5715;48.234;14.320;2023-09-19T15:16:52;1.60;;;1.55;;
11319;SDS011;5715;48.234;14.320;2023-09-19T15:19:40;1.77;;;1.67;;
11319;SDS011;5715;48.234;14.320;2023-09-19T15:22:27;1.90;;;1.80;;
11319;SDS011;5715;48.234;14.320;2023-09-19T15:25:15;1.80;;;1.70;;
11319;SDS011;5715;48.234;14.320;2023-09-19T15:28:03;1.80;;;1.70;;
11319;SDS011;5715;48.234;14.320;2023-09-19T15:30:59;2.63;;;1.70;;
11319;SDS011;5715;48.234;14.320;2023-09-19T15:33:48;1.58;;;1.48;;
11319;SDS011;5715;48.234;14.320;2023-09-19T15:36:36;1.60;;;1.50;;
11319;SDS011;5715;48.234;14.320;2023-09-19T15:39:25;1.50;;;1.40;;
11319;SDS011;5715;48.234;14.320;2023-09-19T15:42:20;1.60;;;1.50;;
11319;SDS011;5715;48.234;14.320;2023-09-19T15:45:08;1.35;;;1.25;;
11319;SDS011;5715;48.234;14.320;2023-09-19T15:47:56;1.50;;;1.40;;
11319;SDS011;5715;48.234;14.320;2023-09-19T15:50:44;1.55;;;1.45;;
11319;SDS011;5715;48.234;14.320;2023-09-19T15:53:43;2.55;;;1.50;;
11319;SDS011;5715;48.234;14.320;2023-09-19T15:56:35;1.48;;;1.40;;
11319;SDS011;5715;48.234;14.320;2023-09-19T15:59:23;4.28;;;1.45;;
11319;SDS011;5715;48.234;14.320;2023-09-19T16:02:10;1.42;;;1.38;;
11319;SDS011;5715;48.234;14.320;2023-09-19T16:04:59;5.68;;;1.42;;
11319;SDS011;5715;48.234;14.320;2023-09-19T16:07:46;1.60;;;1.50;;
11319;SDS011;5715;48.234;14.320;2023-09-19T16:10:35;2.45;;;1.65;;
11319;SDS011;5715;48.234;14.320;2023-09-19T16:13:24;1.50;;;1.40;;
11319;SDS011;5715;48.234;14.320;2023-09-19T16:16:12;1.30;;;1.30;;
11319;SDS011;5715;48.234;14.320;2023-09-19T16:19:03;1.20;;;1.20;;
11319;SDS011;5715;48.234;14.320;2023-09-19T16:21:52;1.40;;;1.30;;
11319;SDS011;5715;48.234;14.320;2023-09-19T16:24:40;1.40;;;1.30;;
11319;SDS011;5715;48.234;14.320;2023-09-19T16:27:27;1.65;;;1.55;;
11319;SDS011;5715;48.234;14.320;2023-09-19T16:30:15;1.48;;;1.40;;
11319;SDS011;5715;48.234;14.320;2023-09-19T16:33:05;1.52;;;1.42;;
11319;SDS011;5715;48.234;14.320;2023-09-19T16:35:52;1.58;;;1.48;;
11319;SDS011;5715;48.234;14.320;2023-09-19T16:38:40;1.50;;;1.40;;
11319;SDS011;5715;48.234;14.320;2023-09-19T16:41:30;1.30;;;1.20;;
11319;SDS011;5715;48.234;14.320;2023-09-19T16:44:17;1.50;;;1.40;;
11319;SDS011;5715;48.234;14.320;2023-09-19T16:47:07;1.15;;;1.15;;
11319;SDS011;5715;48.234;14.320;2023-09-19T16:49:55;2.60;;;1.40;;
11319;SDS011;5715;48.234;14.320;2023-09-19T16:52:42;12.30;;;1.67;;
11319;SDS011;5715;48.234;14.320;2023-09-19T16:55:33;1.40;;;1.30;;
11319;SDS011;5715;48.234;14.320;2023-09-19T16:58:20;3.78;;;1.30;;
11319;SDS011;5715;48.234;14.320;2023-09-19T17:01:12;5.47;;;1.50;;
11319;SDS011;5715;48.234;14.320;2023-09-19T17:04:01;1.38;;;1.27;;
11319;SDS011;5715;48.234;14.320;2023-09-19T17:06:52;1.60;;;1.48;;
11319;SDS011;5715;48.234;14.320;2023-09-19T17:09:39;1.77;;;1.33;;
11319;SDS011;5715;48.234;14.320;2023-09-19T17:12:30;2.72;;;1.35;;
11319;SDS011;5715;48.234;14.320;2023-09-19T17:15:20;1.75;;;1.65;;
11319;SDS011;5715;48.234;14.320;2023-09-19T17:18:07;1.90;;;1.80;;
11319;SDS011;5715;48.234;14.320;2023-09-19T17:20:55;1.98;;;1.88;;
11319;SDS011;5715;48.234;14.320;2023-09-19T17:23:42;1.88;;;1.77;;
11319;SDS011;5715;48.234;14.320;2023-09-19T17:26:30;2.05;;;1.95;;
11319;SDS011;5715;48.234;14.320;2023-09-19T17:29:20;2.10;;;2.00;;
11319;SDS011;5715;48.234;14.320;2023-09-19T17:32:07;2.10;;;2.00;;
11319;SDS011;5715;48.234;14.320;2023-09-19T17:34:55;2.42;;;2.33;;
11319;SDS011;5715;48.234;14.320;2023-09-19T17:37:43;2.40;;;2.20;;
11319;SDS011;5715;48.234;14.320;2023-09-19T17:40:38;2.67;;;2.50;;
11319;SDS011;5715;48.234;14.320;2023-09-19T17:43:27;3.20;;;3.10;;
11319;SDS011;5715;48.234;14.320;2023-09-19T17:46:15;2.45;;;2.35;;
11319;SDS011;5715;48.234;14.320;2023-09-19T17:49:04;2.95;;;2.85;;
11319;SDS011;5715;48.234;14.320;2023-09-19T17:51:52;2.80;;;2.63;;
11319;SDS011;5715;48.234;14.320;2023-09-19T17:54:40;3.42;;;3.22;;
11319;SDS011;5715;48.234;14.320;2023-09-19T17:57:27;3.00;;;2.90;;
11319;SDS011;5715;48.234;14.320;2023-09-19T18:00:16;2.95;;;2.75;;
11319;SDS011;5715;48.234;14.320;2023-09-19T18:03:04;2.60;;;2.50;;
11319;SDS011;5715;48.234;14.320;2023-09-19T18:05:52;2.80;;;2.70;;
11319;SDS011;5715;48.234;14.320;2023-09-19T18:08:40;2.67;;;2.58;;
11319;SDS011;5715;48.234;14.320;2023-09-19T18:11:29;2.87;;;2.77;;